sensor_id;sensor_type;location;lat;lon;timestamp;pressure;altitude;pressure_sealevel;temperature;humidity
72116;BME280;59991;52.140;5.428;2022-09-29T00:00:03;100049.19;;;6.43;87.54
72116;BME280;59991;52.140;5.428;2022-09-29T00:00:35;100041.06;;;6.43;88.08
72116;BME280;59991;52.140;5.428;2022-09-29T00:01:06;100040.28;;;6.43;87.98
72116;BME280;59991;52.140;5.428;2022-09-29T00:01:38;100039.16;;;6.44;87.58
72116;BME280;59991;52.140;5.428;2022-09-29T00:02:09;100039.94;;;6.44;87.79
72116;BME280;59991;52.140;5.428;2022-09-29T00:02:41;100045.34;;;6.44;87.79
72116;BME280;59991;52.140;5.428;2022-09-29T00:03:12;100037.59;;;6.43;87.79
72116;BME280;59991;52.140;5.428;2022-09-29T00:03:43;100041.44;;;6.42;87.70
72116;BME280;59991;52.140;5.428;2022-09-29T00:04:15;100046.84;;;6.42;87.55
72116;BME280;59991;52.140;5.428;2022-09-29T00:04:46;100043.38;;;6.41;87.40
72116;BME280;59991;52.140;5.428;2022-09-29T00:05:17;100039.47;;;6.39;87.33
72116;BME280;59991;52.140;5.428;2022-09-29T00:05:53;100043.72;;;6.40;87.71
72116;BME280;59991;52.140;5.428;2022-09-29T00:06:25;100041.03;;;6.40;87.72
72116;BME280;59991;52.140;5.428;2022-09-29T00:06:56;100045.28;;;6.41;87.65
72116;BME280;59991;52.140;5.428;2022-09-29T00:07:28;100042.94;;;6.39;87.65
72116;BME280;59991;52.140;5.428;2022-09-29T00:07:59;100047.59;;;6.39;87.44
72116;BME280;59991;52.140;5.428;2022-09-29T00:08:31;100046.00;;;6.34;87.67
72116;BME280;59991;52.140;5.428;2022-09-29T00:09:02;100043.31;;;6.38;87.44
72116;BME280;59991;52.140;5.428;2022-09-29T00:09:34;100047.94;;;6.34;87.67
72116;BME280;59991;52.140;5.428;2022-09-29T00:10:05;100049.88;;;6.37;87.45
72116;BME280;59991;52.140;5.428;2022-09-29T00:10:39;100042.09;;;6.32;87.23
72116;BME280;59991;52.140;5.428;2022-09-29T00:11:14;100040.16;;;6.32;87.28
72116;BME280;59991;52.140;5.428;2022-09-29T00:11:46;100049.84;;;6.33;87.61
72116;BME280;59991;52.140;5.428;2022-09-29T00:12:17;100051.00;;;6.32;87.57
72116;BME280;59991;52.140;5.428;2022-09-29T00:12:49;100040.91;;;6.29;87.71
72116;BME280;59991;52.140;5.428;2022-09-29T00:13:21;100049.44;;;6.31;87.79
72116;BME280;59991;52.140;5.428;2022-09-29T00:13:53;100046.69;;;6.28;87.93
72116;BME280;59991;52.140;5.428;2022-09-29T00:14:25;100055.22;;;6.30;87.77
72116;BME280;59991;52.140;5.428;2022-09-29T00:14:56;100045.91;;;6.27;87.95
72116;BME280;59991;52.140;5.428;2022-09-29T00:15:27;100052.88;;;6.28;87.90
72116;BME280;59991;52.140;5.428;2022-09-29T00:16:00;100049.38;;;6.28;87.72
72116;BME280;59991;52.140;5.428;2022-09-29T00:16:32;100041.63;;;6.26;87.57
72116;BME280;59991;52.140;5.428;2022-09-29T00:17:04;100043.56;;;6.26;87.66
72116;BME280;59991;52.140;5.428;2022-09-29T00:17:35;100052.47;;;6.26;87.73
72116;BME280;59991;52.140;5.428;2022-09-29T00:18:07;100047.03;;;6.26;87.57
72116;BME280;59991;52.140;5.428;2022-09-29T00:18:44;100050.91;;;6.25;87.75
72116;BME280;59991;52.140;5.428;2022-09-29T00:19:16;100049.69;;;6.22;87.83
72116;BME280;59991;52.140;5.428;2022-09-29T00:19:47;100052.81;;;6.24;87.46
72116;BME280;59991;52.140;5.428;2022-09-29T00:20:19;100048.97;;;6.26;87.53
72116;BME280;59991;52.140;5.428;2022-09-29T00:20:57;100054.38;;;6.26;87.87
72116;BME280;59991;52.140;5.428;2022-09-29T00:21:29;100054.75;;;6.24;87.25
72116;BME280;59991;52.140;5.428;2022-09-29T00:22:00;100046.63;;;6.24;87.78
72116;BME280;59991;52.140;5.428;2022-09-29T00:22:32;100042.00;;;6.24;87.54
72116;BME280;59991;52.140;5.428;2022-09-29T00:23:03;100043.56;;;6.26;87.94
72116;BME280;59991;52.140;5.428;2022-09-29T00:23:35;100053.25;;;6.27;87.83
72116;BME280;59991;52.140;5.428;2022-09-29T00:24:07;100040.84;;;6.26;87.87
72116;BME280;59991;52.140;5.428;2022-09-29T00:24:38;100046.25;;;6.26;87.82
72116;BME280;59991;52.140;5.428;2022-09-29T00:25:10;100051.25;;;6.23;87.17
72116;BME280;59991;52.140;5.428;2022-09-29T00:25:41;100041.56;;;6.22;87.59
72116;BME280;59991;52.140;5.428;2022-09-29T00:26:22;100050.06;;;6.21;87.84
72116;BME280;59991;52.140;5.428;2022-09-29T00:26:54;100049.28;;;6.20;87.74
72116;BME280;59991;52.140;5.428;2022-09-29T00:27:25;100045.00;;;6.19;87.77
72116;BME280;59991;52.140;5.428;2022-09-29T00:27:57;100041.09;;;6.17;87.72
72116;BME280;59991;52.140;5.428;2022-09-29T00:28:29;100045.38;;;6.18;87.95
72116;BME280;59991;52.140;5.428;2022-09-29T00:29:01;100043.44;;;6.18;88.02
72116;BME280;59991;52.140;5.428;2022-09-29T00:29:32;100034.56;;;6.18;87.90
72116;BME280;59991;52.140;5.428;2022-09-29T00:30:04;100044.59;;;6.17;87.83
72116;BME280;59991;52.140;5.428;2022-09-29T00:30:35;100031.06;;;6.17;87.97
72116;BME280;59991;52.140;5.428;2022-09-29T00:31:08;100038.00;;;6.15;87.97
72116;BME280;59991;52.140;5.428;2022-09-29T00:31:40;100034.91;;;6.16;88.13
72116;BME280;59991;52.140;5.428;2022-09-29T00:32:12;100039.94;;;6.14;87.61
72116;BME280;59991;52.140;5.428;2022-09-29T00:32:43;100041.09;;;6.13;88.04
72116;BME280;59991;52.140;5.428;2022-09-29T00:33:14;100039.53;;;6.12;88.17
72116;BME280;59991;52.140;5.428;2022-09-29T00:33:46;100038.75;;;6.12;87.81
72116;BME280;59991;52.140;5.428;2022-09-29T00:34:17;100041.81;;;6.10;87.76
72116;BME280;59991;52.140;5.428;2022-09-29T00:34:49;100049.94;;;6.10;87.84
72116;BME280;59991;52.140;5.428;2022-09-29T00:35:21;100043.75;;;6.10;87.73
72116;BME280;59991;52.140;5.428;2022-09-29T00:35:57;100037.53;;;6.09;87.71
72116;BME280;59991;52.140;5.428;2022-09-29T00:36:29;100029.00;;;6.07;88.16
72116;BME280;59991;52.140;5.428;2022-09-29T00:37:01;100036.34;;;6.07;87.89
72116;BME280;59991;52.140;5.428;2022-09-29T00:37:33;100042.53;;;6.07;87.46
72116;BME280;59991;52.140;5.428;2022-09-29T00:38:04;100040.97;;;6.06;87.93
72116;BME280;59991;52.140;5.428;2022-09-29T00:38:36;100042.13;;;6.05;87.55
72116;BME280;59991;52.140;5.428;2022-09-29T00:39:07;100034.38;;;6.04;87.81
72116;BME280;59991;52.140;5.428;2022-09-29T00:39:39;100046.38;;;6.06;87.64
72116;BME280;59991;52.140;5.428;2022-09-29T00:40:10;100034.78;;;6.06;87.72
72116;BME280;59991;52.140;5.428;2022-09-29T00:40:42;100036.72;;;6.05;87.68
72116;BME280;59991;52.140;5.428;2022-09-29T00:41:19;100041.34;;;6.05;87.64
72116;BME280;59991;52.140;5.428;2022-09-29T00:41:54;100038.56;;;6.01;87.50
72116;BME280;59991;52.140;5.428;2022-09-29T00:42:27;100040.91;;;6.03;88.06
72116;BME280;59991;52.140;5.428;2022-09-29T00:42:59;100037.44;;;6.02;87.72
72116;BME280;59991;52.140;5.428;2022-09-29T00:45:12;100038.56;;;6.01;87.82
72116;BME280;59991;52.140;5.428;2022-09-29T00:45:44;100043.56;;;5.99;87.51
72116;BME280;59991;52.140;5.428;2022-09-29T00:46:21;100037.75;;;5.97;87.92
72116;BME280;59991;52.140;5.428;2022-09-29T00:47:02;100036.59;;;5.98;87.99
72116;BME280;59991;52.140;5.428;2022-09-29T00:47:35;100037.34;;;5.95;87.54
72116;BME280;59991;52.140;5.428;2022-09-29T00:48:12;100034.66;;;5.95;87.72
72116;BME280;59991;52.140;5.428;2022-09-29T00:48:45;100039.63;;;5.93;87.87
72116;BME280;59991;52.140;5.428;2022-09-29T00:49:40;100041.19;;;5.94;88.14
72116;BME280;59991;52.140;5.428;2022-09-29T00:50:28;100039.63;;;5.93;87.64
72116;BME280;59991;52.140;5.428;2022-09-29T00:51:04;100030.31;;;5.91;87.75
72116;BME280;59991;52.140;5.428;2022-09-29T00:51:38;100034.94;;;5.90;88.07
72116;BME280;59991;52.140;5.428;2022-09-29T00:52:19;100041.16;;;5.91;88.45
72116;BME280;59991;52.140;5.428;2022-09-29T00:53:01;100046.56;;;5.91;88.41
72116;BME280;59991;52.140;5.428;2022-09-29T00:53:33;100036.09;;;5.89;87.97
72116;BME280;59991;52.140;5.428;2022-09-29T00:54:06;100039.91;;;5.88;88.47
72116;BME280;59991;52.140;5.428;2022-09-29T00:54:47;100039.91;;;5.88;87.96
72116;BME280;59991;52.140;5.428;2022-09-29T00:55:30;100039.13;;;5.87;88.09
72116;BME280;59991;52.140;5.428;2022-09-29T00:56:08;100031.38;;;5.86;88.43
72116;BME280;59991;52.140;5.428;2022-09-29T00:56:42;100040.28;;;5.86;88.12
72116;BME280;59991;52.140;5.428;2022-09-29T00:57:17;100037.56;;;5.86;88.08
72116;BME280;59991;52.140;5.428;2022-09-29T00:58:01;100041.06;;;5.87;88.38
72116;BME280;59991;52.140;5.428;2022-09-29T00:58:37;100032.16;;;5.86;88.10
72116;BME280;59991;52.140;5.428;2022-09-29T00:59:14;100034.09;;;5.86;88.26
72116;BME280;59991;52.140;5.428;2022-09-29T00:59:56;100040.28;;;5.86;87.69
72116;BME280;59991;52.140;5.428;2022-09-29T01:00:31;100042.97;;;5.86;88.09
72116;BME280;59991;52.140;5.428;2022-09-29T01:01:04;100041.06;;;5.87;88.34
72116;BME280;59991;52.140;5.428;2022-09-29T01:01:35;100040.28;;;5.86;88.42
72116;BME280;59991;52.140;5.428;2022-09-29T01:02:07;100041.06;;;5.87;88.23
72116;BME280;59991;52.140;5.428;2022-09-29T01:02:42;100042.97;;;5.86;88.36
72116;BME280;59991;52.140;5.428;2022-09-29T01:03:16;100043.75;;;5.87;88.38
72116;BME280;59991;52.140;5.428;2022-09-29T01:03:52;100046.06;;;5.85;87.93
72116;BME280;59991;52.140;5.428;2022-09-29T01:04:26;100040.63;;;5.85;88.06
72116;BME280;59991;52.140;5.428;2022-09-29T01:04:58;100040.63;;;5.85;88.13
72116;BME280;59991;52.140;5.428;2022-09-29T01:05:43;100038.28;;;5.83;88.17
72116;BME280;59991;52.140;5.428;2022-09-29T01:06:21;100037.16;;;5.84;87.59
72116;BME280;59991;52.140;5.428;2022-09-29T01:06:56;100045.28;;;5.84;87.94
72116;BME280;59991;52.140;5.428;2022-09-29T01:07:28;100043.34;;;5.85;87.94
72116;BME280;59991;52.140;5.428;2022-09-29T01:08:13;100048.34;;;5.83;88.40
72116;BME280;59991;52.140;5.428;2022-09-29T01:08:52;100044.06;;;5.82;88.08
72116;BME280;59991;52.140;5.428;2022-09-29T01:09:31;100047.56;;;5.82;88.22
72116;BME280;59991;52.140;5.428;2022-09-29T01:10:04;100043.66;;;5.80;87.73
72116;BME280;59991;52.140;5.428;2022-09-29T01:10:38;100038.25;;;5.80;87.82
72116;BME280;59991;52.140;5.428;2022-09-29T01:11:11;100049.47;;;5.82;87.81
72116;BME280;59991;52.140;5.428;2022-09-29T01:11:43;100040.94;;;5.80;87.71
72116;BME280;59991;52.140;5.428;2022-09-29T01:12:16;100042.88;;;5.79;88.10
72116;BME280;59991;52.140;5.428;2022-09-29T01:12:48;100040.94;;;5.80;88.08
72116;BME280;59991;52.140;5.428;2022-09-29T01:13:20;100037.81;;;5.78;88.25
72116;BME280;59991;52.140;5.428;2022-09-29T01:13:53;100042.09;;;5.79;87.94
72116;BME280;59991;52.140;5.428;2022-09-29T01:14:27;100045.16;;;5.77;87.88
72116;BME280;59991;52.140;5.428;2022-09-29T01:14:59;100033.94;;;5.75;87.80
72116;BME280;59991;52.140;5.428;2022-09-29T01:15:31;100035.44;;;5.73;88.01
72116;BME280;59991;52.140;5.428;2022-09-29T01:16:03;100040.13;;;5.76;88.24
72116;BME280;59991;52.140;5.428;2022-09-29T01:16:36;100043.97;;;5.75;88.38
72116;BME280;59991;52.140;5.428;2022-09-29T01:17:07;100041.28;;;5.75;88.06
72116;BME280;59991;52.140;5.428;2022-09-29T01:17:39;100042.84;;;5.76;87.96
72116;BME280;59991;52.140;5.428;2022-09-29T01:18:11;100042.41;;;5.74;87.64
72116;BME280;59991;52.140;5.428;2022-09-29T01:18:43;100049.38;;;5.75;88.15
72116;BME280;59991;52.140;5.428;2022-09-29T01:19:27;100047.47;;;5.75;87.97
72116;BME280;59991;52.140;5.428;2022-09-29T01:20:18;100047.47;;;5.75;88.03
72116;BME280;59991;52.140;5.428;2022-09-29T01:21:03;100045.13;;;5.74;88.35
72116;BME280;59991;52.140;5.428;2022-09-29T01:22:00;100046.25;;;5.73;88.06
72116;BME280;59991;52.140;5.428;2022-09-29T01:22:59;100046.25;;;5.73;87.88
72116;BME280;59991;52.140;5.428;2022-09-29T01:25:00;100049.75;;;5.73;88.61
72116;BME280;59991;52.140;5.428;2022-09-29T01:26:07;100038.16;;;5.73;88.69
72116;BME280;59991;52.140;5.428;2022-09-29T01:30:04;100039.72;;;5.74;89.08
72116;BME280;59991;52.140;5.428;2022-09-29T01:31:51;100037.72;;;5.71;88.87
72116;BME280;59991;52.140;5.428;2022-09-29T01:34:20;100043.13;;;5.71;89.06
72116;BME280;59991;52.140;5.428;2022-09-29T01:35:04;100040.44;;;5.71;89.13
72116;BME280;59991;52.140;5.428;2022-09-29T01:35:51;100043.91;;;5.71;89.32
72116;BME280;59991;52.140;5.428;2022-09-29T01:36:50;100043.13;;;5.71;89.54
72116;BME280;59991;52.140;5.428;2022-09-29T01:39:35;100049.28;;;5.68;89.39
72116;BME280;59991;52.140;5.428;2022-09-29T01:40:13;100045.00;;;5.67;89.10
72116;BME280;59991;52.140;5.428;2022-09-29T01:41:02;100045.78;;;5.67;89.17
72116;BME280;59991;52.140;5.428;2022-09-29T01:42:58;100042.66;;;5.65;89.16
72116;BME280;59991;52.140;5.428;2022-09-29T01:43:35;100052.69;;;5.65;88.77
72116;BME280;59991;52.140;5.428;2022-09-29T01:44:19;100051.13;;;5.64;89.08
72116;BME280;59991;52.140;5.428;2022-09-29T01:44:56;100052.69;;;5.65;88.85
72116;BME280;59991;52.140;5.428;2022-09-29T01:45:33;100049.56;;;5.63;88.87
72116;BME280;59991;52.140;5.428;2022-09-29T01:46:22;100050.34;;;5.63;89.41
72116;BME280;59991;52.140;5.428;2022-09-29T01:47:00;100047.22;;;5.61;88.80
72116;BME280;59991;52.140;5.428;2022-09-29T01:47:39;100047.22;;;5.61;89.37
72116;BME280;59991;52.140;5.428;2022-09-29T01:48:18;100051.06;;;5.60;89.50
72116;BME280;59991;52.140;5.428;2022-09-29T01:48:54;100050.28;;;5.60;89.22
72116;BME280;59991;52.140;5.428;2022-09-29T01:49:30;100051.06;;;5.60;89.04
72116;BME280;59991;52.140;5.428;2022-09-29T01:50:05;100048.72;;;5.59;89.05
72116;BME280;59991;52.140;5.428;2022-09-29T01:50:41;100051.81;;;5.57;88.99
72116;BME280;59991;52.140;5.428;2022-09-29T01:51:19;100049.47;;;5.55;89.00
72116;BME280;59991;52.140;5.428;2022-09-29T01:52:09;100047.91;;;5.54;89.34
72116;BME280;59991;52.140;5.428;2022-09-29T01:52:48;100045.22;;;5.54;88.90
72116;BME280;59991;52.140;5.428;2022-09-29T01:53:32;100049.84;;;5.54;88.87
72116;BME280;59991;52.140;5.428;2022-09-29T01:54:11;100052.13;;;5.52;88.99
72116;BME280;59991;52.140;5.428;2022-09-29T01:55:06;100047.50;;;5.52;88.80
72116;BME280;59991;52.140;5.428;2022-09-29T01:55:43;100042.09;;;5.52;88.72
72116;BME280;59991;52.140;5.428;2022-09-29T01:56:21;100054.81;;;5.52;89.08
72116;BME280;59991;52.140;5.428;2022-09-29T01:57:01;100051.69;;;5.50;88.71
72116;BME280;59991;52.140;5.428;2022-09-29T01:57:42;100045.09;;;5.47;88.87
72116;BME280;59991;52.140;5.428;2022-09-29T01:58:23;100047.00;;;5.47;88.90
72116;BME280;59991;52.140;5.428;2022-09-29T01:59:04;100050.91;;;5.49;88.96
72116;BME280;59991;52.140;5.428;2022-09-29T01:59:50;100056.69;;;5.48;88.89
72116;BME280;59991;52.140;5.428;2022-09-29T02:00:24;100051.63;;;5.46;88.95
72116;BME280;59991;52.140;5.428;2022-09-29T02:01:04;100058.59;;;5.47;88.87
72116;BME280;59991;52.140;5.428;2022-09-29T02:01:40;100047.38;;;5.45;88.83
72116;BME280;59991;52.140;5.428;2022-09-29T02:02:18;100052.78;;;5.45;88.79
72116;BME280;59991;52.140;5.428;2022-09-29T02:02:57;100049.28;;;5.45;88.80
72116;BME280;59991;52.140;5.428;2022-09-29T02:03:36;100050.78;;;5.42;88.81
72116;BME280;59991;52.140;5.428;2022-09-29T02:04:17;100050.78;;;5.42;89.03
72116;BME280;59991;52.140;5.428;2022-09-29T02:04:53;100053.50;;;5.42;89.12
72116;BME280;59991;52.140;5.428;2022-09-29T02:05:42;100054.28;;;5.43;88.48
72116;BME280;59991;52.140;5.428;2022-09-29T02:06:22;100051.94;;;5.41;88.95
72116;BME280;59991;52.140;5.428;2022-09-29T02:07:14;100055.41;;;5.42;88.59
72116;BME280;59991;52.140;5.428;2022-09-29T02:07:48;100048.44;;;5.41;88.69
72116;BME280;59991;52.140;5.428;2022-09-29T02:08:59;100057.69;;;5.40;88.79
72116;BME280;59991;52.140;5.428;2022-09-29T02:09:38;100055.38;;;5.38;88.95
72116;BME280;59991;52.140;5.428;2022-09-29T02:10:30;100051.91;;;5.38;89.14
72116;BME280;59991;52.140;5.428;2022-09-29T02:11:05;100061.13;;;5.37;88.64
72116;BME280;59991;52.140;5.428;2022-09-29T02:11:39;100054.09;;;5.32;89.09
72116;BME280;59991;52.140;5.428;2022-09-29T02:12:13;100053.38;;;5.35;88.20
72116;BME280;59991;52.140;5.428;2022-09-29T02:12:51;100052.59;;;5.35;88.43
72116;BME280;59991;52.140;5.428;2022-09-29T02:13:23;100059.94;;;5.34;88.53
72116;BME280;59991;52.140;5.428;2022-09-29T02:14:00;100046.72;;;5.29;88.46
72116;BME280;59991;52.140;5.428;2022-09-29T02:14:41;100053.69;;;5.30;88.29
72116;BME280;59991;52.140;5.428;2022-09-29T02:15:18;100057.94;;;5.31;88.26
72116;BME280;59991;52.140;5.428;2022-09-29T02:15:53;100058.31;;;5.30;88.74
72116;BME280;59991;52.140;5.428;2022-09-29T02:16:30;100055.19;;;5.28;88.80
72116;BME280;59991;52.140;5.428;2022-09-29T02:17:08;100057.88;;;5.28;88.62
72116;BME280;59991;52.140;5.428;2022-09-29T02:17:44;100059.81;;;5.27;88.98
72116;BME280;59991;52.140;5.428;2022-09-29T02:18:22;100052.06;;;5.26;88.62
72116;BME280;59991;52.140;5.428;2022-09-29T02:19:00;100054.75;;;5.26;89.01
72116;BME280;59991;52.140;5.428;2022-09-29T02:19:36;100053.19;;;5.25;88.75
72116;BME280;59991;52.140;5.428;2022-09-29T02:20:10;100057.03;;;5.24;88.92
72116;BME280;59991;52.140;5.428;2022-09-29T02:20:42;100054.69;;;5.22;88.86
72116;BME280;59991;52.140;5.428;2022-09-29T02:21:13;100053.50;;;5.19;89.05
72116;BME280;59991;52.140;5.428;2022-09-29T02:21:45;100058.19;;;5.22;88.87
72116;BME280;59991;52.140;5.428;2022-09-29T02:22:17;100058.19;;;5.22;88.47
72116;BME280;59991;52.140;5.428;2022-09-29T02:22:48;100048.16;;;5.23;88.67
72116;BME280;59991;52.140;5.428;2022-09-29T02:23:20;100052.00;;;5.22;89.05
72116;BME280;59991;52.140;5.428;2022-09-29T02:23:51;100047.72;;;5.21;88.97
72116;BME280;59991;52.140;5.428;2022-09-29T02:24:25;100058.19;;;5.22;89.01
72116;BME280;59991;52.140;5.428;2022-09-29T02:24:57;100043.84;;;5.18;88.90
72116;BME280;59991;52.140;5.428;2022-09-29T02:25:34;100055.81;;;5.21;88.73
72116;BME280;59991;52.140;5.428;2022-09-29T02:26:05;100046.91;;;5.17;88.23
72116;BME280;59991;52.140;5.428;2022-09-29T02:26:37;100044.19;;;5.17;88.93
72116;BME280;59991;52.140;5.428;2022-09-29T02:27:09;100053.50;;;5.19;88.98
72116;BME280;59991;52.140;5.428;2022-09-29T02:27:40;100050.03;;;5.19;88.63
72116;BME280;59991;52.140;5.428;2022-09-29T02:28:12;100051.16;;;5.18;89.19
72116;BME280;59991;52.140;5.428;2022-09-29T02:28:44;100048.81;;;5.16;88.90
72116;BME280;59991;52.140;5.428;2022-09-29T02:29:17;100040.66;;;5.13;88.99
72116;BME280;59991;52.140;5.428;2022-09-29T02:29:48;100041.84;;;5.15;88.73
72116;BME280;59991;52.140;5.428;2022-09-29T02:30:21;100036.44;;;5.15;88.71
72116;BME280;59991;52.140;5.428;2022-09-29T02:30:52;100043.41;;;5.16;89.11
72116;BME280;59991;52.140;5.428;2022-09-29T02:31:24;100044.19;;;5.17;88.85
72116;BME280;59991;52.140;5.428;2022-09-29T02:31:55;100044.19;;;5.17;88.70
72116;BME280;59991;52.140;5.428;2022-09-29T02:32:32;100045.41;;;5.19;88.91
72116;BME280;59991;52.140;5.428;2022-09-29T02:33:05;100048.84;;;5.20;88.97
72116;BME280;59991;52.140;5.428;2022-09-29T02:33:36;100043.06;;;5.18;89.12
72116;BME280;59991;52.140;5.428;2022-09-29T02:34:12;100043.06;;;5.18;88.65
72116;BME280;59991;52.140;5.428;2022-09-29T02:34:46;100052.34;;;5.20;88.92
72116;BME280;59991;52.140;5.428;2022-09-29T02:35:19;100051.16;;;5.18;88.98
72116;BME280;59991;52.140;5.428;2022-09-29T02:36:01;100048.84;;;5.20;88.31
72116;BME280;59991;52.140;5.428;2022-09-29T02:38:03;100050.75;;;5.16;88.72
72116;BME280;59991;52.140;5.428;2022-09-29T02:39:27;100046.91;;;5.17;88.65
72116;BME280;59991;52.140;5.428;2022-09-29T02:41:03;100055.38;;;5.15;88.64
72116;BME280;59991;52.140;5.428;2022-09-29T02:45:20;100055.72;;;5.14;88.83
72116;BME280;59991;52.140;5.428;2022-09-29T02:46:49;100053.03;;;5.14;88.92
72116;BME280;59991;52.140;5.428;2022-09-29T02:48:19;100054.16;;;5.13;88.86
72116;BME280;59991;52.140;5.428;2022-09-29T02:49:06;100051.47;;;5.13;88.72
72116;BME280;59991;52.140;5.428;2022-09-29T02:49:48;100050.31;;;5.14;88.97
72116;BME280;59991;52.140;5.428;2022-09-29T02:50:40;100055.28;;;5.12;88.87
72116;BME280;59991;52.140;5.428;2022-09-29T02:51:26;100045.19;;;5.09;89.04
72116;BME280;59991;52.140;5.428;2022-09-29T02:52:09;100048.69;;;5.09;88.80
72116;BME280;59991;52.140;5.428;2022-09-29T02:54:17;100052.94;;;5.10;88.80
72116;BME280;59991;52.140;5.428;2022-09-29T02:54:39;100053.31;;;5.09;88.92
72116;BME280;59991;52.140;5.428;2022-09-29T02:55:24;100052.16;;;5.10;88.89
72116;BME280;59991;52.140;5.428;2022-09-29T02:57:19;100049.41;;;5.06;89.02
72116;BME280;59991;52.140;5.428;2022-09-29T02:58:15;100051.31;;;5.06;89.15
72116;BME280;59991;52.140;5.428;2022-09-29T02:58:53;100046.63;;;5.03;89.21
72116;BME280;59991;52.140;5.428;2022-09-29T02:59:41;100048.19;;;5.04;89.21
72116;BME280;59991;52.140;5.428;2022-09-29T03:00:17;100053.16;;;5.02;89.19
72116;BME280;59991;52.140;5.428;2022-09-29T03:00:49;100053.16;;;5.02;89.03
72116;BME280;59991;52.140;5.428;2022-09-29T03:01:20;100044.66;;;5.00;88.90
72116;BME280;59991;52.140;5.428;2022-09-29T03:01:53;100053.56;;;5.00;88.96
72116;BME280;59991;52.140;5.428;2022-09-29T03:02:26;100047.38;;;5.00;88.88
72116;BME280;59991;52.140;5.428;2022-09-29T03:02:57;100046.19;;;5.01;89.08
72116;BME280;59991;52.140;5.428;2022-09-29T03:03:29;100055.47;;;5.00;89.10
72116;BME280;59991;52.140;5.428;2022-09-29T03:04:00;100051.59;;;5.01;88.98
72116;BME280;59991;52.140;5.428;2022-09-29T03:04:35;100049.69;;;5.01;88.91
72116;BME280;59991;52.140;5.428;2022-09-29T03:05:11;100044.28;;;5.01;89.34
72116;BME280;59991;52.140;5.428;2022-09-29T03:05:43;100046.94;;;4.98;88.86
72116;BME280;59991;52.140;5.428;2022-09-29T03:06:17;100052.34;;;4.98;89.21
72116;BME280;59991;52.140;5.428;2022-09-29T03:06:49;100046.50;;;4.96;88.94
72116;BME280;59991;52.140;5.428;2022-09-29T03:07:21;100055.03;;;4.98;89.11
72116;BME280;59991;52.140;5.428;2022-09-29T03:07:52;100053.47;;;4.97;88.85
72116;BME280;59991;52.140;5.428;2022-09-29T03:08:24;100051.56;;;4.97;89.11
72116;BME280;59991;52.140;5.428;2022-09-29T03:08:55;100045.38;;;4.97;89.06
72116;BME280;59991;52.140;5.428;2022-09-29T03:09:27;100048.88;;;4.97;89.41
72116;BME280;59991;52.140;5.428;2022-09-29T03:09:58;100042.25;;;4.95;89.01
72116;BME280;59991;52.140;5.428;2022-09-29T03:10:32;100049.22;;;4.96;89.00
72116;BME280;59991;52.140;5.428;2022-09-29T03:11:04;100050.34;;;4.95;88.83
72116;BME280;59991;52.140;5.428;2022-09-29T03:11:35;100046.44;;;4.92;88.89
72116;BME280;59991;52.140;5.428;2022-09-29T03:12:07;100045.25;;;4.90;89.36
72116;BME280;59991;52.140;5.428;2022-09-29T03:12:39;100049.94;;;4.93;88.96
72116;BME280;59991;52.140;5.428;2022-09-29T03:13:10;100045.66;;;4.92;89.18
72116;BME280;59991;52.140;5.428;2022-09-29T03:13:42;100046.81;;;4.91;88.88
72116;BME280;59991;52.140;5.428;2022-09-29T03:14:13;100043.66;;;4.89;89.25
72116;BME280;59991;52.140;5.428;2022-09-29T03:14:45;100047.16;;;4.89;88.85
72116;BME280;59991;52.140;5.428;2022-09-29T03:15:16;100053.34;;;4.90;89.22
72116;BME280;59991;52.140;5.428;2022-09-29T03:15:49;100056.41;;;4.88;88.96
72116;BME280;59991;52.140;5.428;2022-09-29T03:16:21;100053.69;;;4.88;89.09
72116;BME280;59991;52.140;5.428;2022-09-29T03:16:52;100048.66;;;4.86;89.05
72116;BME280;59991;52.140;5.428;2022-09-29T03:17:23;100043.66;;;4.89;89.07
72116;BME280;59991;52.140;5.428;2022-09-29T03:17:55;100041.69;;;4.85;89.52
72116;BME280;59991;52.140;5.428;2022-09-29T03:18:27;100055.63;;;4.88;89.40
72116;BME280;59991;52.140;5.428;2022-09-29T03:18:59;100052.91;;;4.88;89.06
72116;BME280;59991;52.140;5.428;2022-09-29T03:19:30;100050.22;;;4.88;89.27
72116;BME280;59991;52.140;5.428;2022-09-29T03:20:02;100047.50;;;4.88;89.63
72116;BME280;59991;52.140;5.428;2022-09-29T03:20:34;100049.44;;;4.87;88.76
72116;BME280;59991;52.140;5.428;2022-09-29T03:21:05;100049.78;;;4.85;89.27
72116;BME280;59991;52.140;5.428;2022-09-29T03:21:36;100050.91;;;4.84;89.33
72116;BME280;59991;52.140;5.428;2022-09-29T03:22:08;100054.41;;;4.85;89.26
72116;BME280;59991;52.140;5.428;2022-09-29T03:22:39;100048.22;;;4.84;88.72
72116;BME280;59991;52.140;5.428;2022-09-29T03:23:10;100049.78;;;4.85;88.70
72116;BME280;59991;52.140;5.428;2022-09-29T03:23:42;100054.41;;;4.85;88.74
72116;BME280;59991;52.140;5.428;2022-09-29T03:24:13;100050.91;;;4.84;88.92
72116;BME280;59991;52.140;5.428;2022-09-29T03:24:44;100042.38;;;4.82;88.91
72116;BME280;59991;52.140;5.428;2022-09-29T03:25:16;100044.38;;;4.85;88.53
72116;BME280;59991;52.140;5.428;2022-09-29T03:25:47;100044.31;;;4.82;89.13
72116;BME280;59991;52.140;5.428;2022-09-29T03:26:19;100040.81;;;4.81;89.05
72116;BME280;59991;52.140;5.428;2022-09-29T03:26:50;100047.44;;;4.84;89.04
72116;BME280;59991;52.140;5.428;2022-09-29T03:27:22;100040.06;;;4.81;89.11
72116;BME280;59991;52.140;5.428;2022-09-29T03:27:53;100052.41;;;4.82;88.95
72116;BME280;59991;52.140;5.428;2022-09-29T03:28:24;100048.94;;;4.81;88.61
72116;BME280;59991;52.140;5.428;2022-09-29T03:28:56;100042.78;;;4.81;88.67
72116;BME280;59991;52.140;5.428;2022-09-29T03:29:28;100055.50;;;4.80;88.66
72116;BME280;59991;52.140;5.428;2022-09-29T03:29:59;100040.44;;;4.79;88.79
72116;BME280;59991;52.140;5.428;2022-09-29T03:30:31;100052.72;;;4.77;88.95
72116;BME280;59991;52.140;5.428;2022-09-29T03:31:06;100042.34;;;4.79;88.47
72116;BME280;59991;52.140;5.428;2022-09-29T03:31:39;100045.06;;;4.79;89.22